createdAt,value
2023-08-21T00:01:26.775Z,2.30
2023-08-21T00:04:21.758Z,2.72
2023-08-21T00:07:12.583Z,2.60
2023-08-21T00:10:01.977Z,2.60
2023-08-21T00:12:51.357Z,2.03
2023-08-21T00:15:42.243Z,2.03
2023-08-21T00:18:31.817Z,2.00
2023-08-21T00:21:22.148Z,2.42
2023-08-21T00:24:11.595Z,2.00
2023-08-21T00:27:01.293Z,2.17
2023-08-21T00:29:51.317Z,1.92
2023-08-21T00:32:43.439Z,2.50
2023-08-21T00:35:32.980Z,2.00
2023-08-21T00:38:22.320Z,2.00
2023-08-21T00:41:11.775Z,1.90
2023-08-21T00:44:01.138Z,1.88
2023-08-21T00:47:02.192Z,2.25
2023-08-21T00:49:53.159Z,2.00
2023-08-21T00:52:45.398Z,2.30
2023-08-21T00:55:35.370Z,2.17
2023-08-21T00:58:28.757Z,2.10
2023-08-21T01:01:22.279Z,1.63
2023-08-21T01:04:11.750Z,1.75
2023-08-21T01:07:05.784Z,1.75
2023-08-21T01:10:05.550Z,1.88
2023-08-21T01:13:05.530Z,1.95
2023-08-21T01:15:58.216Z,1.80
2023-08-21T01:18:50.024Z,1.60
2023-08-21T01:21:40.272Z,2.20
2023-08-21T01:24:31.615Z,1.50
2023-08-21T01:27:23.368Z,1.90
2023-08-21T01:30:13.720Z,2.63
2023-08-21T01:33:09.133Z,1.85
2023-08-21T01:36:01.134Z,1.58
2023-08-21T01:38:51.039Z,1.50
2023-08-21T01:41:42.226Z,1.60
2023-08-21T01:44:31.608Z,1.77
2023-08-21T01:47:20.966Z,1.67
2023-08-21T01:50:11.410Z,1.60
2023-08-21T01:53:01.612Z,1.90
2023-08-21T01:55:50.927Z,1.77
2023-08-21T01:58:41.733Z,1.75
2023-08-21T02:01:31.403Z,1.88
2023-08-21T02:04:20.761Z,1.70
2023-08-21T02:07:10.143Z,2.17
2023-08-21T02:09:59.419Z,1.70
2023-08-21T02:12:48.780Z,1.52
2023-08-21T02:15:40.906Z,1.75
2023-08-21T02:18:30.483Z,1.60
2023-08-21T02:21:20.683Z,1.55
2023-08-21T02:24:11.330Z,1.85
2023-08-21T02:27:01.697Z,1.80
2023-08-21T02:29:51.427Z,1.63
2023-08-21T02:32:42.246Z,1.83
2023-08-21T02:35:31.755Z,1.40
2023-08-21T02:38:21.125Z,1.77
2023-08-21T02:41:10.746Z,1.58
2023-08-21T02:44:00.070Z,1.50
2023-08-21T02:46:49.309Z,1.65
2023-08-21T02:49:40.175Z,1.50
2023-08-21T02:52:29.465Z,1.65
2023-08-21T02:55:18.926Z,1.60
2023-08-21T02:58:08.624Z,1.70
2023-08-21T03:00:58.196Z,1.27
2023-08-21T03:03:47.512Z,1.50
2023-08-21T03:06:39.006Z,1.30
2023-08-21T03:09:28.474Z,1.40
2023-08-21T03:12:17.855Z,1.30
2023-08-21T03:15:08.685Z,1.20
2023-08-21T03:17:58.648Z,1.10
2023-08-21T03:20:48.271Z,1.20
2023-08-21T03:23:39.052Z,1.05
2023-08-21T03:26:29.196Z,1.10
2023-08-21T03:29:18.865Z,1.10
2023-08-21T03:32:08.389Z,1.10
2023-08-21T03:34:58.232Z,1.00
2023-08-21T03:37:47.620Z,1.20
2023-08-21T03:40:42.037Z,1.25
2023-08-21T03:46:20.897Z,1.00
2023-08-21T03:49:10.346Z,0.90
2023-08-21T03:51:59.618Z,0.90
2023-08-21T03:54:48.994Z,1.00
2023-08-21T03:57:39.747Z,1.10
2023-08-21T04:00:29.079Z,0.90
2023-08-21T04:03:18.456Z,0.95
2023-08-21T04:06:08.489Z,1.00
2023-08-21T04:08:57.864Z,1.08
2023-08-21T04:11:47.225Z,1.10
2023-08-21T04:14:38.097Z,0.77
2023-08-21T04:17:27.599Z,0.85
2023-08-21T04:20:17.370Z,0.85
2023-08-21T04:23:06.739Z,1.00
2023-08-21T04:25:56.039Z,1.23
2023-08-21T04:28:45.423Z,1.15
2023-08-21T04:31:36.731Z,0.88
2023-08-21T04:34:26.088Z,1.00
2023-08-21T04:37:15.867Z,1.00
2023-08-21T04:40:05.827Z,0.80
2023-08-21T04:42:55.337Z,0.80
2023-08-21T04:45:51.771Z,0.98
2023-08-21T04:48:43.243Z,0.90
2023-08-21T04:51:32.849Z,0.80
2023-08-21T04:54:25.297Z,1.00
2023-08-21T04:57:15.010Z,0.90
2023-08-21T05:00:05.225Z,1.20
2023-08-21T05:02:59.965Z,1.13
2023-08-21T05:05:57.239Z,1.23
2023-08-21T05:08:47.123Z,1.35
2023-08-21T05:11:36.491Z,1.40
2023-08-21T05:14:26.259Z,1.60
2023-08-21T05:17:15.796Z,1.33
2023-08-21T05:20:06.570Z,1.45
2023-08-21T05:22:57.364Z,1.58
2023-08-21T05:25:48.172Z,1.40
2023-08-21T05:28:37.503Z,1.55
2023-08-21T05:31:26.949Z,1.80
2023-08-21T05:34:17.861Z,1.67
2023-08-21T05:37:08.251Z,1.17
2023-08-21T05:39:59.100Z,1.40
2023-08-21T05:42:48.476Z,1.40
2023-08-21T05:45:38.368Z,1.63
2023-08-21T05:48:28.062Z,1.75
2023-08-21T05:51:17.356Z,1.60
2023-08-21T05:54:06.875Z,1.85
2023-08-21T05:56:57.548Z,1.30
2023-08-21T05:59:48.811Z,1.50
2023-08-21T06:02:38.270Z,1.65
2023-08-21T06:05:27.821Z,1.70
2023-08-21T06:08:17.485Z,1.45
2023-08-21T06:11:07.069Z,1.45
2023-08-21T06:13:58.024Z,1.60
2023-08-21T06:16:47.418Z,1.55
2023-08-21T06:19:36.801Z,1.67
2023-08-21T06:22:26.223Z,1.60
2023-08-21T06:25:15.596Z,1.50
2023-08-21T06:28:05.723Z,1.52
2023-08-21T06:31:00.160Z,1.42
2023-08-21T06:33:49.800Z,1.40
2023-08-21T06:36:40.654Z,1.52
2023-08-21T06:39:30.320Z,1.45
2023-08-21T06:42:19.671Z,1.25
2023-08-21T06:45:12.984Z,1.33
2023-08-21T06:48:04.157Z,1.40
2023-08-21T06:50:53.538Z,1.30
2023-08-21T06:53:43.802Z,1.20
2023-08-21T06:56:35.511Z,1.48
2023-08-21T06:59:24.989Z,1.50
2023-08-21T07:02:14.375Z,1.50
2023-08-21T07:05:05.447Z,1.58
2023-08-21T07:07:56.203Z,1.45
2023-08-21T07:10:45.635Z,1.17
2023-08-21T07:13:34.979Z,1.40
2023-08-21T07:16:28.054Z,1.65
2023-08-21T07:19:17.404Z,1.80
2023-08-21T07:22:08.238Z,1.60
2023-08-21T07:24:57.719Z,1.50
2023-08-21T07:27:46.971Z,1.45
2023-08-21T07:30:38.952Z,1.48
2023-08-21T07:33:29.218Z,1.43
2023-08-21T07:36:19.243Z,1.30
2023-08-21T07:39:10.168Z,1.50
2023-08-21T07:41:59.514Z,1.55
2023-08-21T07:44:48.815Z,1.70
2023-08-21T07:47:38.299Z,1.50
2023-08-21T07:50:27.647Z,1.35
2023-08-21T07:53:17.011Z,1.40
2023-08-21T07:56:08.354Z,1.50
2023-08-21T07:58:57.908Z,1.40
2023-08-21T08:01:47.368Z,1.55
2023-08-21T08:04:36.837Z,1.35
2023-08-21T08:07:26.226Z,1.80
2023-08-21T08:10:15.645Z,1.60
2023-08-21T08:13:07.128Z,1.63
2023-08-21T08:15:56.758Z,1.92
2023-08-21T08:18:46.161Z,1.48
2023-08-21T08:21:35.719Z,1.95
2023-08-21T08:24:25.170Z,1.63
2023-08-21T08:27:14.560Z,1.70
2023-08-21T08:30:06.124Z,1.52
2023-08-21T08:32:55.588Z,1.90
2023-08-21T08:35:45.396Z,1.52
2023-08-21T08:38:34.792Z,1.83
2023-08-21T08:41:35.559Z,1.40
2023-08-21T08:44:28.060Z,1.33
2023-08-21T08:47:21.866Z,1.60
2023-08-21T08:50:11.852Z,1.60
2023-08-21T08:53:15.210Z,1.90
2023-08-21T08:56:06.607Z,1.90
2023-08-21T08:58:56.127Z,1.70
2023-08-21T09:01:45.930Z,1.60
2023-08-21T09:04:36.786Z,1.75
2023-08-21T09:07:26.356Z,1.70
2023-08-21T09:10:17.331Z,2.30
2023-08-21T09:13:14.365Z,2.08
2023-08-21T09:16:04.092Z,1.85
2023-08-21T09:18:55.082Z,1.95
2023-08-21T09:21:45.861Z,1.50
2023-08-21T09:24:35.846Z,1.58
2023-08-21T09:27:25.358Z,1.90
2023-08-21T09:30:17.426Z,1.60
2023-08-21T09:33:07.599Z,1.95
2023-08-21T09:35:57.748Z,1.73
2023-08-21T09:38:51.067Z,1.58
2023-08-21T09:41:42.013Z,1.52
2023-08-21T09:44:31.481Z,1.45
2023-08-21T09:47:21.863Z,1.65
2023-08-21T09:50:12.043Z,1.52
2023-08-21T09:53:01.741Z,1.80
2023-08-21T09:56:11.402Z,1.80
2023-08-21T09:59:00.906Z,1.83
2023-08-21T10:01:53.519Z,1.60
2023-08-21T10:04:47.499Z,1.98
2023-08-21T10:07:37.734Z,1.60
2023-08-21T10:10:27.544Z,1.77
2023-08-21T10:13:19.300Z,1.50
2023-08-21T10:16:13.293Z,1.63
2023-08-21T10:19:08.646Z,1.60
2023-08-21T10:22:00.044Z,1.67
2023-08-21T10:24:49.397Z,1.85
2023-08-21T10:27:39.149Z,1.63
2023-08-21T10:30:31.278Z,1.60
2023-08-21T10:33:40.666Z,1.83
2023-08-21T10:37:11.231Z,1.85
2023-08-21T10:40:00.800Z,1.45
2023-08-21T10:42:50.282Z,1.92
2023-08-21T10:45:56.877Z,1.80
2023-08-21T10:48:46.199Z,1.80
2023-08-21T10:51:37.288Z,1.70
2023-08-21T10:54:26.707Z,1.90
2023-08-21T10:57:16.065Z,1.90
2023-08-21T11:00:10.383Z,1.73
2023-08-21T11:03:01.212Z,1.48
2023-08-21T11:06:04.861Z,1.98
2023-08-21T11:08:54.250Z,2.00
2023-08-21T11:11:45.456Z,2.22
2023-08-21T11:14:36.238Z,1.92
2023-08-21T11:17:25.628Z,2.72
2023-08-21T11:20:16.476Z,2.00
2023-08-21T11:23:08.314Z,2.00
2023-08-21T11:26:01.318Z,2.33
2023-08-21T11:29:03.772Z,2.13
2023-08-21T11:31:54.414Z,2.30
2023-08-21T11:34:45.411Z,2.70
2023-08-21T11:37:36.683Z,2.03
2023-08-21T11:40:26.280Z,2.33
2023-08-21T11:43:15.559Z,2.38
2023-08-21T11:46:05.599Z,2.78
2023-08-21T11:48:55.381Z,2.55
2023-08-21T11:51:44.794Z,2.65
2023-08-21T11:54:37.450Z,2.20
2023-08-21T11:57:26.931Z,2.42
2023-08-21T12:00:20.039Z,2.03
2023-08-21T12:03:11.121Z,2.13
2023-08-21T12:06:01.935Z,2.47
2023-08-21T12:08:51.360Z,2.55
2023-08-21T12:11:42.211Z,2.70
2023-08-21T12:14:32.017Z,2.70
2023-08-21T12:17:21.626Z,2.70
2023-08-21T12:20:12.925Z,2.90
2023-08-21T12:23:02.220Z,3.25
2023-08-21T12:25:51.578Z,2.58
2023-08-21T12:28:42.789Z,2.70
2023-08-21T12:31:32.516Z,3.22
2023-08-21T12:34:21.807Z,2.92
2023-08-21T12:37:11.108Z,2.83
2023-08-21T12:40:00.470Z,2.45
2023-08-21T12:42:49.977Z,2.47
2023-08-21T12:45:40.803Z,2.53
2023-08-21T12:48:30.104Z,2.40
2023-08-21T12:51:19.523Z,2.53
2023-08-21T12:54:10.449Z,2.80
2023-08-21T12:57:00.059Z,2.60
2023-08-21T12:59:49.428Z,2.63
2023-08-21T13:02:40.525Z,2.42
2023-08-21T13:05:30.134Z,2.40
2023-08-21T13:08:19.581Z,2.25
2023-08-21T13:11:08.964Z,2.10
2023-08-21T13:13:58.254Z,2.72
2023-08-21T13:16:47.523Z,2.40
2023-08-21T13:19:38.326Z,2.70
2023-08-21T13:22:27.784Z,2.35
2023-08-21T13:25:17.544Z,2.20
2023-08-21T13:28:08.364Z,2.08
2023-08-21T13:33:51.555Z,2.13
2023-08-21T13:39:32.169Z,2.00
2023-08-21T13:42:21.448Z,2.40
2023-08-21T13:45:14.142Z,2.38
2023-08-21T13:48:05.296Z,2.38
2023-08-21T13:53:59.381Z,2.53
2023-08-21T13:56:48.956Z,2.53
2023-08-21T13:59:38.295Z,2.53
2023-08-21T14:02:33.103Z,2.65
2023-08-21T14:05:22.637Z,2.15
2023-08-21T14:08:11.962Z,2.60
2023-08-21T14:11:02.784Z,2.55
2023-08-21T14:13:53.225Z,2.20
2023-08-21T14:16:42.650Z,2.30
2023-08-21T14:19:32.225Z,2.22
2023-08-21T14:22:22.080Z,2.10
2023-08-21T14:25:14.831Z,2.22
2023-08-21T14:28:06.313Z,2.20
2023-08-21T14:30:55.696Z,1.80
2023-08-21T14:33:53.199Z,1.80
2023-08-21T14:36:42.580Z,2.10
2023-08-21T14:39:32.086Z,2.22
2023-08-21T14:42:21.470Z,1.90
2023-08-21T14:45:12.739Z,2.15
2023-08-21T14:48:02.229Z,2.30
2023-08-21T14:50:51.622Z,1.90
2023-08-21T14:53:41.133Z,2.30
2023-08-21T14:56:31.568Z,2.17
2023-08-21T14:59:22.775Z,2.50
2023-08-21T15:02:13.553Z,2.70
2023-08-21T15:05:07.628Z,2.30
2023-08-21T15:07:57.236Z,1.90
2023-08-21T15:10:46.602Z,2.22
2023-08-21T15:13:36.054Z,2.50
2023-08-21T15:16:25.668Z,2.20
2023-08-21T15:19:16.422Z,2.28
2023-08-21T15:22:05.835Z,2.33
2023-08-21T15:24:55.149Z,2.30
2023-08-21T15:27:44.483Z,2.38
2023-08-21T15:30:33.853Z,2.10
2023-08-21T15:33:23.383Z,3.08
2023-08-21T15:36:14.247Z,2.25
2023-08-21T15:39:04.155Z,2.30
2023-08-21T15:41:53.519Z,2.58
2023-08-21T15:44:42.853Z,2.63
2023-08-21T15:50:24.931Z,2.63
2023-08-21T15:53:16.602Z,2.50
2023-08-21T15:56:06.513Z,2.45
2023-08-21T15:58:56.849Z,2.47
2023-08-21T16:01:46.501Z,2.30
2023-08-21T16:04:36.311Z,2.58
2023-08-21T16:07:26.018Z,2.50
2023-08-21T16:10:16.907Z,2.28
2023-08-21T16:13:06.578Z,2.45
2023-08-21T16:15:56.018Z,2.40
2023-08-21T16:18:45.496Z,2.10
2023-08-21T16:21:34.822Z,2.53
2023-08-21T16:24:24.649Z,2.47
2023-08-21T16:27:15.555Z,2.35
2023-08-21T16:30:06.266Z,2.33
2023-08-21T16:32:55.954Z,2.47
2023-08-21T16:35:45.407Z,2.55
2023-08-21T16:38:34.637Z,2.70
2023-08-21T16:41:24.055Z,2.70
2023-08-21T16:44:14.780Z,3.08
2023-08-21T16:47:04.287Z,2.50
2023-08-21T16:49:53.772Z,2.30
2023-08-21T16:52:43.247Z,2.60
2023-08-21T16:55:32.584Z,2.53
2023-08-21T16:58:21.962Z,2.78
2023-08-21T17:01:12.741Z,2.60
2023-08-21T17:04:02.128Z,2.35
2023-08-21T17:06:51.453Z,2.45
2023-08-21T17:09:46.055Z,2.42
2023-08-21T17:12:36.024Z,2.33
2023-08-21T17:15:25.604Z,2.22
2023-08-21T17:18:16.446Z,2.17
2023-08-21T17:21:05.884Z,2.50
2023-08-21T17:23:55.243Z,2.10
2023-08-21T17:26:44.972Z,2.60
2023-08-21T17:29:34.348Z,2.50
2023-08-21T17:32:23.841Z,2.58
2023-08-21T17:35:15.256Z,2.47
2023-08-21T17:38:04.848Z,2.10
2023-08-21T17:40:54.248Z,2.40
2023-08-21T17:43:44.668Z,2.60
2023-08-21T17:46:34.062Z,2.10
2023-08-21T17:49:31.317Z,2.20
2023-08-21T17:52:22.252Z,2.40
2023-08-21T17:55:11.939Z,2.30
2023-08-21T17:58:01.972Z,2.10
2023-08-21T18:00:51.439Z,2.30
2023-08-21T18:03:40.756Z,2.47
2023-08-21T18:06:32.546Z,2.20
2023-08-21T18:09:23.946Z,2.20
2023-08-21T18:12:14.343Z,2.20
2023-08-21T18:15:04.984Z,2.00
2023-08-21T18:17:54.447Z,2.22
2023-08-21T18:20:52.490Z,2.53
2023-08-21T18:23:42.124Z,2.10
2023-08-21T18:26:32.817Z,2.10
2023-08-21T18:29:22.251Z,2.05
2023-08-21T18:32:12.013Z,2.72
2023-08-21T18:35:04.754Z,2.20
2023-08-21T18:40:43.729Z,2.40
2023-08-21T18:43:34.437Z,2.17
2023-08-21T18:46:23.868Z,2.72
2023-08-21T18:49:13.225Z,3.00
2023-08-21T18:52:02.553Z,2.10
2023-08-21T18:54:51.846Z,1.92
2023-08-21T18:57:41.660Z,2.10
2023-08-21T19:00:32.643Z,1.65
2023-08-21T19:03:22.113Z,1.90
2023-08-21T19:06:11.527Z,2.55
2023-08-21T19:09:00.939Z,2.33
2023-08-21T19:11:50.299Z,2.20
2023-08-21T19:14:39.686Z,1.83
2023-08-21T19:17:30.652Z,2.10
2023-08-21T19:20:20.137Z,1.90
2023-08-21T19:23:09.590Z,2.10
2023-08-21T19:25:58.939Z,2.08
2023-08-21T19:28:48.471Z,1.90
2023-08-21T19:31:37.876Z,2.13
2023-08-21T19:34:28.677Z,2.05
2023-08-21T19:37:19.813Z,2.35
2023-08-21T19:40:11.932Z,2.28
2023-08-21T19:43:01.204Z,2.30
2023-08-21T19:45:57.095Z,2.10
2023-08-21T19:48:46.995Z,2.13
2023-08-21T19:51:37.864Z,2.67
2023-08-21T19:54:27.254Z,1.90
2023-08-21T19:57:16.699Z,1.80
2023-08-21T20:00:11.266Z,1.95
2023-08-21T20:03:01.066Z,2.42
2023-08-21T20:05:50.549Z,2.00
2023-08-21T20:08:41.305Z,2.03
2023-08-21T20:11:30.687Z,2.00
2023-08-21T20:14:20.425Z,2.15
2023-08-21T20:17:09.713Z,2.08
2023-08-21T20:19:59.168Z,2.72
2023-08-21T20:22:48.572Z,2.35
2023-08-21T20:25:39.418Z,1.90
2023-08-21T20:28:28.773Z,1.80
2023-08-21T20:31:18.193Z,1.90
2023-08-21T20:34:10.008Z,2.25
2023-08-21T20:36:59.434Z,2.50
2023-08-21T20:39:48.805Z,2.50
2023-08-21T20:42:42.823Z,2.00
2023-08-21T20:45:32.759Z,2.38
2023-08-21T20:48:22.233Z,2.00
2023-08-21T20:51:12.081Z,2.25
2023-08-21T20:54:01.439Z,2.30
2023-08-21T20:56:50.853Z,2.30
2023-08-21T20:59:41.683Z,2.15
2023-08-21T21:02:31.161Z,2.33
2023-08-21T21:05:20.794Z,2.15
2023-08-21T21:08:10.478Z,2.30
2023-08-21T21:10:59.969Z,2.08
2023-08-21T21:13:49.526Z,2.42
2023-08-21T21:16:41.551Z,2.30
2023-08-21T21:19:31.153Z,2.58
2023-08-21T21:22:20.571Z,2.45
2023-08-21T21:25:11.220Z,2.45
2023-08-21T21:28:00.557Z,3.00
2023-08-21T21:30:50.066Z,2.40
2023-08-21T21:33:43.439Z,2.75
2023-08-21T21:36:32.960Z,2.80
2023-08-21T21:39:37.744Z,2.75
2023-08-21T21:42:29.222Z,3.03
2023-08-21T21:45:19.455Z,2.90
2023-08-21T21:48:09.270Z,2.85
2023-08-21T21:51:00.685Z,2.83
2023-08-21T21:53:50.130Z,3.08
2023-08-21T21:56:40.525Z,2.65
2023-08-21T21:59:29.920Z,2.97
2023-08-21T22:02:19.297Z,2.80
2023-08-21T22:05:11.247Z,2.78
2023-08-21T22:08:02.250Z,3.00
2023-08-21T22:10:51.718Z,2.90
2023-08-21T22:13:41.153Z,2.80
2023-08-21T22:16:31.878Z,3.45
2023-08-21T22:19:21.588Z,3.05
2023-08-21T22:22:11.023Z,3.13
2023-08-21T22:25:01.824Z,2.97
2023-08-21T22:27:53.965Z,3.20
2023-08-21T22:30:43.750Z,3.53
2023-08-21T22:33:33.349Z,3.10
2023-08-21T22:36:22.834Z,3.00
2023-08-21T22:39:12.444Z,3.20
2023-08-21T22:42:03.257Z,3.13
2023-08-21T22:44:52.942Z,3.13
2023-08-21T22:47:42.920Z,3.63
2023-08-21T22:50:32.511Z,3.58
2023-08-21T22:53:21.828Z,3.42
2023-08-21T22:56:11.436Z,3.53
2023-08-21T22:59:02.339Z,2.58
2023-08-21T23:01:51.690Z,2.75
2023-08-21T23:04:41.234Z,3.08
2023-08-21T23:07:30.573Z,3.53
2023-08-21T23:10:20.449Z,3.08
2023-08-21T23:13:09.774Z,3.22
2023-08-21T23:16:01.291Z,3.00
2023-08-21T23:18:50.735Z,2.38
2023-08-21T23:21:40.084Z,3.00
2023-08-21T23:24:29.385Z,2.70
2023-08-21T23:27:18.782Z,2.85
2023-08-21T23:30:09.729Z,2.85
2023-08-21T23:33:00.407Z,3.10
2023-08-21T23:35:49.768Z,2.45
2023-08-21T23:38:39.281Z,2.78
2023-08-21T23:41:28.818Z,3.03
2023-08-21T23:44:18.250Z,3.03
2023-08-21T23:47:08.143Z,2.60
2023-08-21T23:49:59.000Z,2.90
2023-08-21T23:52:48.238Z,2.72
2023-08-21T23:55:39.494Z,3.25
2023-08-21T23:58:28.996Z,2.83
